首页
METAR-TAF:

METAR-TAF

机场 :

尚贝里 / 艾克斯-就业辅导组班, 法国

纬度: 45-39N, 经度: 005-53E, 海拔: 235米

当前天气观测

该预报发布于10分钟前的13:30 UTC
风速10节,风向,在南转南东西南之间变化
温度 7°C
湿度 57%
气压 1005 hPa
能见度10公里或以上
散云层高于7800英尺

METAR: LFLB 031330Z AUTO 19010KT 160V220 9999 SCT078 07/M01 Q1005 NOSIG

时间: 14:40 (13:40 UTC)

预报

该预报发布于2小时和29分钟前的11:11 UTC
预报有效从03日的 11点(UTC)到 04日的 09点(UTC)
风速10节,风向
能见度10公里或以上
1500米以下无云,无积雨云
成为
从 04日的 04点(UTC)到 04日的 06点(UTC)
阴天层高于5000英尺
小雨

TAF: LFLB 031111Z 0311/0409 18010KT CAVOK BECMG 0404/0406 -RA OVC050

超过4000个机场的气象观测和天气预报(METAR&TAF报告)。

可查询的气象台以黄色和红色小点在地图上表示。

将鼠标移到小点上方,可查看气象台名称。

然后点击查看天气观测和预报。

如需切换地图:点击带黑十字的绿色按钮放大地图;点击带横线的绿色按钮缩小地图;或者点击绿色箭头查看邻近地区的地图。


METAR-TAF: